Time;durP1;ratioP1;P1;durP2;ratioP2;P2;SDS_P1;SDS_P2;PMS_P1;PMS_P2;Temp;Humidity;BMP_temperature;BMP_pressure;BME280_temperature;BME280_humidity;BME280_pressure;Samples;Min_cycle;Max_cycle;Signal;HPM_P1;HPM_P2
2022/08/20 00:01:25;;;;;;;4.63;1.05;;;;;;;15.91;65.80;100593.59;5030962;28;20029;-74
2022/08/20 00:03:51;;;;;;;2.67;0.73;;;;;;;15.80;66.21;100593.72;5006590;28;20116;-75
2022/08/20 00:06:20;;;;;;;5.70;1.13;;;;;;;15.69;66.71;100590.25;5013626;28;20026;-74
2022/08/20 00:08:46;;;;;;;3.58;1.20;;;;;;;15.59;67.16;100581.31;5016402;28;20084;-74
2022/08/20 00:11:23;;;;;;;3.25;0.77;;;;;;;15.49;67.59;100580.34;5013123;28;20059;-75
2022/08/20 00:13:53;;;;;;;6.20;1.20;;;;;;;15.41;68.00;100589.25;5032691;28;20037;-74
2022/08/20 00:16:22;;;;;;;5.20;1.00;;;;;;;15.31;68.41;100590.19;5033539;28;20049;-75
2022/08/20 00:18:47;;;;;;;2.92;0.82;;;;;;;15.18;68.60;100579.88;5031834;28;20029;-74
2022/08/20 00:21:15;;;;;;;3.80;1.05;;;;;;;15.12;69.25;100586.56;5032165;28;20021;-74
2022/08/20 00:23:44;;;;;;;4.63;1.50;;;;;;;15.01;69.23;100591.38;5032659;28;20029;-73
2022/08/20 00:26:11;;;;;;;5.30;1.10;;;;;;;14.90;69.69;100585.13;5013731;28;20057;-74
2022/08/20 00:28:39;;;;;;;5.93;1.25;;;;;;;14.78;70.17;100588.28;5030909;28;20495;-75
2022/08/20 00:31:10;;;;;;;4.47;1.00;;;;;;;14.63;70.43;100591.16;5039045;28;20113;-74
2022/08/20 00:33:36;;;;;;;1.92;0.75;;;;;;;14.48;70.49;100581.94;5035931;28;20033;-74
2022/08/20 00:36:05;;;;;;;4.18;1.25;;;;;;;14.42;71.06;100593.25;5020214;28;20037;-74
2022/08/20 00:38:36;;;;;;;6.72;1.23;;;;;;;14.34;72.07;100589.19;5044912;28;20040;-74
2022/08/20 00:41:03;;;;;;;8.68;1.42;;;;;;;14.29;72.77;100578.22;5034682;28;20021;-74
2022/08/20 00:43:37;;;;;;;6.63;1.20;;;;;;;14.23;72.68;100582.13;5015901;28;20461;-74
2022/08/20 00:46:31;;;;;;;4.22;1.83;;;;;;;14.14;73.15;100590.97;5037631;28;20017;-74
2022/08/20 00:48:57;;;;;;;2.63;0.90;;;;;;;14.08;73.54;100583.06;5035054;28;20032;-73
2022/08/20 00:51:33;;;;;;;8.38;1.23;;;;;;;14.00;73.47;100578.16;5038539;28;20022;-74
2022/08/20 00:54:09;;;;;;;4.53;0.95;;;;;;;13.95;73.71;100579.03;5043266;28;20482;-74
2022/08/20 00:56:36;;;;;;;5.50;0.80;;;;;;;13.90;74.28;100579.03;5026705;28;20024;-73
2022/08/20 00:59:10;;;;;;;4.05;0.90;;;;;;;13.84;74.78;100581.00;5033476;28;20022;-75
2022/08/20 01:01:37;;;;;;;5.10;1.30;;;;;;;13.76;75.04;100587.09;5043259;28;20029;-75
2022/08/20 01:04:04;;;;;;;4.68;0.80;;;;;;;13.68;75.31;100580.28;5037170;28;20266;-74
2022/08/20 01:06:30;;;;;;;3.75;1.10;;;;;;;13.62;75.18;100581.41;5034358;28;20041;-74
2022/08/20 01:08:56;;;;;;;5.13;1.00;;;;;;;13.58;75.57;100589.41;5034453;28;20113;-73
2022/08/20 01:11:31;;;;;;;6.00;1.05;;;;;;;13.53;76.19;100588.59;5032166;28;20034;-75
2022/08/20 01:13:57;;;;;;;9.00;1.75;;;;;;;13.56;76.29;100588.84;5019255;28;20025;-74
2022/08/20 01:16:30;;;;;;;7.03;1.17;;;;;;;13.51;76.67;100588.06;5035397;28;20045;-75
2022/08/20 01:18:59;;;;;;;4.45;1.27;;;;;;;13.50;76.88;100586.41;5035385;28;20030;-74
2022/08/20 01:21:32;;;;;;;2.78;0.95;;;;;;;13.49;76.85;100584.75;5046608;28;20068;-73
2022/08/20 01:24:19;;;;;;;4.13;1.00;;;;;;;13.44;76.84;100589.16;5034012;28;20112;-74
2022/08/20 01:26:48;;;;;;;7.97;1.60;;;;;;;13.40;77.59;100590.88;5015304;28;20022;-74
2022/08/20 01:29:18;;;;;;;3.75;1.00;;;;;;;13.44;77.16;100583.69;5031073;28;20037;-74
2022/08/20 01:31:44;;;;;;;8.23;1.38;;;;;;;13.48;77.28;100578.47;5036322;28;20029;-74
2022/08/20 01:34:12;;;;;;;6.05;0.90;;;;;;;13.61;76.67;100579.78;5036487;28;20032;-74
2022/08/20 01:36:46;;;;;;;2.72;0.85;;;;;;;13.78;75.99;100579.38;5030409;28;20052;-75
2022/08/20 01:39:16;;;;;;;4.85;1.15;;;;;;;13.88;76.00;100578.53;5026177;28;20018;-73
2022/08/20 01:41:50;;;;;;;4.68;0.90;;;;;;;13.96;75.30;100572.44;5022951;28;20025;-75
2022/08/20 01:44:16;;;;;;;;;;;;;;;14.00;75.83;100573.47;5028971;28;20044;-75
2022/08/20 01:46:45;;;;;;;6.22;1.33;;;;;;;14.07;75.67;100573.16;5020017;28;20398;-73
2022/08/20 01:49:16;;;;;;;5.70;1.08;;;;;;;14.14;75.51;100573.66;5050846;28;20033;-74
2022/08/20 01:51:42;;;;;;;6.65;1.55;;;;;;;14.24;74.96;100579.09;5037164;28;20108;-73
2022/08/20 01:54:07;;;;;;;3.92;0.85;;;;;;;14.33;75.16;100565.53;5035850;28;20037;-73
2022/08/20 01:56:34;;;;;;;3.88;1.15;;;;;;;14.42;74.70;100574.81;5020371;28;20029;-74
2022/08/20 01:59:05;;;;;;;5.50;1.08;;;;;;;14.46;74.73;100580.56;5045803;28;20037;-73
2022/08/20 02:01:35;;;;;;;6.00;1.20;;;;;;;14.47;74.82;100574.78;5039918;28;20031;-73
2022/08/20 02:04:03;;;;;;;7.03;1.02;;;;;;;14.45;75.12;100571.47;5040036;28;20680;-74
2022/08/20 02:06:31;;;;;;;3.85;1.08;;;;;;;14.42;75.33;100574.81;5025098;28;20053;-74
2022/08/20 02:08:59;;;;;;;8.95;1.55;;;;;;;14.39;76.05;100567.13;5041894;28;20053;-73
2022/08/20 02:11:26;;;;;;;10.93;1.38;;;;;;;14.37;75.68;100572.13;5046900;28;20018;-73
2022/08/20 02:13:53;;;;;;;10.00;1.88;;;;;;;14.41;76.04;100578.69;5036728;28;20033;-73
2022/08/20 02:16:27;;;;;;;9.02;1.20;;;;;;;14.30;76.36;100566.13;5021408;28;20106;-73
2022/08/20 02:18:57;;;;;;;8.43;1.20;;;;;;;14.21;76.63;100571.41;5041943;28;20021;-73
2022/08/20 02:21:26;;;;;;;4.93;1.60;;;;;;;14.07;76.99;100571.22;5039109;28;20025;-74
2022/08/20 02:23:51;;;;;;;6.50;1.00;;;;;;;13.91;77.37;100564.19;5042116;28;20024;-74
2022/08/20 02:26:18;;;;;;;4.93;1.10;;;;;;;13.82;77.82;100571.41;5041771;28;20037;-73
2022/08/20 02:28:49;;;;;;;10.65;1.35;;;;;;;13.72;78.50;100566.78;5026284;28;20029;-74
2022/08/20 02:31:19;;;;;;;7.32;1.27;;;;;;;13.62;78.90;100562.16;5045960;28;20407;-74
2022/08/20 02:33:45;;;;;;;9.00;1.63;;;;;;;13.59;79.25;100573.72;5049422;28;20037;-74
2022/08/20 02:36:13;;;;;;;2.78;1.08;;;;;;;13.52;79.29;100564.97;5035391;28;20033;-75
2022/08/20 02:38:40;;;;;;;9.98;1.58;;;;;;;13.52;79.81;100567.72;5039600;28;20087;-74
2022/08/20 02:41:06;;;;;;;6.90;1.33;;;;;;;13.44;79.35;100567.19;5041026;28;20111;-73
2022/08/20 02:43:32;;;;;;;7.18;1.05;;;;;;;13.43;79.18;100560.09;5044930;28;20139;-73
2022/08/20 02:45:58;;;;;;;4.43;1.00;;;;;;;13.35;79.32;100552.41;5009385;28;20527;-75
2022/08/20 02:48:24;;;;;;;8.63;1.42;;;;;;;13.39;79.74;100555.41;5022002;28;20052;-74
2022/08/20 02:50:56;;;;;;;3.47;0.80;;;;;;;13.35;79.63;100557.91;5037153;28;20083;-73
2022/08/20 02:53:24;;;;;;;4.18;1.13;;;;;;;13.29;80.07;100553.50;5044175;28;20101;-73
2022/08/20 02:55:50;;;;;;;13.35;1.75;;;;;;;13.25;80.33;100552.44;5036462;28;20095;-74
2022/08/20 02:58:16;;;;;;;9.35;1.02;;;;;;;13.25;80.83;100560.66;5038427;28;20017;-73
2022/08/20 03:00:41;;;;;;;4.25;1.27;;;;;;;13.21;80.97;100556.84;5039320;28;20509;-74
2022/08/20 03:03:09;;;;;;;3.55;0.90;;;;;;;13.19;80.92;100559.06;5044634;28;20037;-73
2022/08/20 03:05:36;;;;;;;7.95;1.10;;;;;;;13.12;80.82;100561.28;5037509;28;20026;-76
2022/08/20 03:08:02;;;;;;;4.00;0.90;;;;;;;13.05;80.92;100565.13;5036658;28;20029;-74
2022/08/20 03:10:32;;;;;;;5.55;1.30;;;;;;;12.99;80.65;100558.00;5041129;28;20120;-74
2022/08/20 03:13:01;;;;;;;5.05;1.00;;;;;;;12.94;80.77;100558.03;5018876;28;20128;-75
2022/08/20 03:15:28;;;;;;;4.03;1.00;;;;;;;12.87;80.96;100560.25;5038668;28;20138;-73
2022/08/20 03:17:54;;;;;;;2.17;0.75;;;;;;;12.79;80.84;100555.31;5004483;28;20064;-74
2022/08/20 03:20:19;;;;;;;1.63;0.60;;;;;;;12.76;80.82;100551.19;5001435;28;20034;-73
2022/08/20 03:22:47;;;;;;;1.80;0.50;;;;;;;12.75;80.97;100558.59;5000163;28;20485;-75
2022/08/20 03:25:14;;;;;;;2.70;0.80;;;;;;;12.80;80.62;100562.44;5001061;28;20026;-73
2022/08/20 03:27:40;;;;;;;3.95;1.00;;;;;;;12.88;81.43;100565.44;4999493;28;20025;-74
2022/08/20 03:30:09;;;;;;;8.93;1.40;;;;;;;12.96;81.15;100566.78;5015920;28;20030;-74
2022/08/20 03:32:36;;;;;;;4.63;0.93;;;;;;;13.07;80.86;100565.66;5019327;28;20022;-73
2022/08/20 03:35:03;;;;;;;7.90;1.40;;;;;;;13.15;80.70;100563.44;5001267;28;20037;-73
2022/08/20 03:37:33;;;;;;;6.45;1.33;;;;;;;13.18;80.40;100557.41;5031703;28;20541;-73
2022/08/20 03:39:59;;;;;;;4.90;1.15;;;;;;;13.22;80.26;100558.47;5015569;28;20037;-74
2022/08/20 03:42:26;;;;;;;6.35;1.00;;;;;;;13.26;79.86;100554.09;4986206;28;20037;-72
2022/08/20 03:44:52;;;;;;;7.60;1.00;;;;;;;13.31;79.79;100551.28;5019280;28;20812;-74
2022/08/20 03:47:17;;;;;;;2.88;0.90;;;;;;;13.36;79.59;100554.06;4982940;28;20057;-73
2022/08/20 03:49:43;;;;;;;5.45;1.25;;;;;;;13.44;79.10;100556.22;5018501;28;20038;-74
2022/08/20 03:52:10;;;;;;;8.50;1.38;;;;;;;13.50;79.19;100553.44;5017411;28;20479;-74
2022/08/20 03:54:36;;;;;;;7.18;1.48;;;;;;;13.45;79.46;100537.81;4985550;28;20032;-73
2022/08/20 03:57:02;;;;;;;8.70;1.10;;;;;;;13.49;79.60;100551.78;5017834;28;20451;-74
2022/08/20 03:59:31;;;;;;;6.68;1.20;;;;;;;13.44;79.67;100556.22;5019450;28;20021;-74
2022/08/20 04:01:58;;;;;;;5.32;1.05;;;;;;;13.37;79.71;100555.69;4996707;28;20029;-73
2022/08/20 04:04:23;;;;;;;1.63;0.73;;;;;;;13.31;79.50;100551.28;4998868;28;20519;-74
2022/08/20 04:06:49;;;;;;;4.43;0.95;;;;;;;13.25;79.45;100552.44;4998708;28;20022;-73
2022/08/20 04:09:14;;;;;;;3.63;0.65;;;;;;;13.14;79.66;100550.81;4999276;28;20037;-74
2022/08/20 04:11:41;;;;;;;0.77;0.50;;;;;;;13.08;79.70;100559.09;5017165;28;20025;-74
2022/08/20 04:14:09;;;;;;;3.13;0.50;;;;;;;13.00;79.69;100556.09;5015890;28;20028;-74
2022/08/20 04:16:34;;;;;;;0.45;0.30;;;;;;;12.93;80.58;100557.19;5026518;28;20100;-74
2022/08/20 04:19:00;;;;;;;0.32;0.30;;;;;;;12.92;80.63;100551.97;5018053;28;20026;-75
2022/08/20 04:21:25;;;;;;;4.10;0.45;;;;;;;12.89;80.03;100552.53;5018610;28;20073;-73
2022/08/20 04:23:51;;;;;;;2.58;0.73;;;;;;;12.83;80.55;100550.91;4998414;28;20042;-74
2022/08/20 04:26:18;;;;;;;2.35;0.52;;;;;;;12.73;80.29;100552.59;5016732;28;20018;-74
2022/08/20 04:28:44;;;;;;;4.05;1.27;;;;;;;12.63;81.21;100547.13;5008092;28;20030;-74
2022/08/20 04:31:12;;;;;;;3.20;1.00;;;;;;;12.62;81.63;100556.44;4984248;28;20031;-74
2022/08/20 04:33:37;;;;;;;7.32;1.13;;;;;;;12.56;82.00;100549.31;4997135;28;20026;-74
2022/08/20 04:36:04;;;;;;;6.82;1.40;;;;;;;12.49;81.93;100551.53;5016382;28;20310;-75
2022/08/20 04:38:30;;;;;;;6.45;1.30;;;;;;;12.47;82.79;100542.72;4996134;28;20026;-74
2022/08/20 04:40:59;;;;;;;2.03;0.90;;;;;;;12.43;82.38;100553.44;5003834;28;20021;-73
2022/08/20 04:43:33;;;;;;;3.20;1.10;;;;;;;12.37;83.20;100552.63;4998186;28;20030;-74
2022/08/20 04:46:00;;;;;;;;;;;;;;;12.34;83.01;100561.41;5016408;28;20022;-74
2022/08/20 04:48:27;;;;;;;4.35;1.00;;;;;;;12.34;83.05;100560.59;5005468;28;19963;-74
2022/08/20 04:50:54;;;;;;;7.82;1.33;;;;;;;12.30;83.55;100565.78;5023120;28;20029;-74
2022/08/20 04:53:22;;;;;;;4.75;1.27;;;;;;;12.29;84.61;100564.13;5014962;28;20022;-76
2022/08/20 04:55:49;;;;;;;8.52;1.48;;;;;;;12.30;84.44;100567.72;5015473;28;20014;-74
2022/08/20 04:58:22;;;;;;;7.53;1.38;;;;;;;12.27;84.50;100563.59;5006058;28;20029;-74
2022/08/20 05:00:59;;;;;;;5.15;0.88;;;;;;;12.28;84.97;100570.72;5023567;28;20022;-74
2022/08/20 05:03:25;;;;;;;5.70;1.23;;;;;;;12.28;85.09;100573.47;5014808;28;20038;-74
2022/08/20 05:05:52;;;;;;;6.68;1.50;;;;;;;12.28;85.03;100569.88;5016444;28;20021;-74
2022/08/20 05:08:21;;;;;;;8.50;1.73;;;;;;;12.36;85.75;100575.66;4997565;28;20516;-73
2022/08/20 05:10:48;;;;;;;4.75;1.17;;;;;;;12.42;84.58;100581.16;5014754;28;20030;-73
2022/08/20 05:13:16;;;;;;;6.13;1.20;;;;;;;12.51;85.11;100588.56;4997670;28;20018;-75
2022/08/20 05:15:44;;;;;;;7.50;1.17;;;;;;;12.65;84.93;100583.31;4996988;28;20022;-73
2022/08/20 05:18:10;;;;;;;3.20;1.20;;;;;;;12.78;84.44;100581.13;5019776;28;20020;-74
2022/08/20 05:20:39;;;;;;;7.15;1.60;;;;;;;12.87;83.67;100584.94;5013172;28;20021;-74
2022/08/20 05:23:07;;;;;;;4.95;1.20;;;;;;;12.94;83.14;100579.97;5005040;28;20445;-73
2022/08/20 05:25:33;;;;;;;6.53;1.30;;;;;;;12.98;83.08;100580.22;4998895;28;20084;-74
2022/08/20 05:28:02;;;;;;;3.53;0.93;;;;;;;12.94;83.20;100574.50;4996588;28;20378;-75
2022/08/20 05:30:32;;;;;;;7.43;1.20;;;;;;;12.93;83.48;100586.56;5016705;28;20026;-74
2022/08/20 05:33:02;;;;;;;6.40;1.00;;;;;;;12.88;83.27;100576.44;5023998;28;20021;-74
2022/08/20 05:35:29;;;;;;;5.32;1.13;;;;;;;12.89;83.25;100588.22;4999793;28;20072;-74
2022/08/20 05:37:56;;;;;;;4.38;1.00;;;;;;;12.84;83.28;100572.59;4999427;28;20033;-74
2022/08/20 05:40:23;;;;;;;5.00;0.90;;;;;;;12.85;83.04;100581.63;5018958;28;20036;-74
2022/08/20 05:42:50;;;;;;;3.83;0.90;;;;;;;12.89;83.57;100582.72;5003020;28;20500;-75
2022/08/20 05:45:17;;;;;;;6.63;1.13;;;;;;;12.94;82.63;100590.97;5017870;28;20033;-74
2022/08/20 05:47:43;;;;;;;2.83;0.73;;;;;;;13.01;82.74;100585.16;5014072;28;20029;-76
2022/08/20 05:50:11;;;;;;;1.45;0.88;;;;;;;13.10;82.79;100587.06;5018342;28;20131;-74
2022/08/20 05:52:37;;;;;;;1.75;0.73;;;;;;;13.14;81.85;100590.09;5023618;28;20025;-73
2022/08/20 05:55:05;;;;;;;1.38;0.50;;;;;;;13.17;81.90;100600.53;5000389;28;20026;-74
2022/08/20 05:57:30;;;;;;;2.28;0.45;;;;;;;13.22;81.77;100607.91;5024211;28;20083;-74
2022/08/20 05:59:56;;;;;;;11.30;1.45;;;;;;;13.28;81.77;100612.28;5008088;28;20030;-74
2022/08/20 06:05:05;;;;;;;9.68;2.03;;;;;;;13.37;81.72;100607.06;5001685;28;20036;-74
2022/08/20 06:07:31;;;;;;;12.75;1.55;;;;;;;13.36;81.43;100614.50;5019276;28;20128;-74
2022/08/20 06:09:56;;;;;;;4.68;1.33;;;;;;;13.33;81.29;100608.69;5002874;28;20083;-73
2022/08/20 06:12:21;;;;;;;3.67;1.35;;;;;;;13.40;80.93;100620.22;5000724;28;20030;-74
2022/08/20 06:14:47;;;;;;;3.05;1.10;;;;;;;13.43;81.25;100609.53;5002464;28;20037;-74
2022/08/20 06:17:15;;;;;;;6.30;1.08;;;;;;;13.54;81.05;100617.72;5015161;28;20050;-75
2022/08/20 06:19:42;;;;;;;4.30;1.05;;;;;;;13.67;80.82;100619.84;5020182;28;20025;-74
2022/08/20 06:22:08;;;;;;;5.30;1.25;;;;;;;13.79;80.76;100627.75;5020694;28;20679;-73
2022/08/20 06:24:33;;;;;;;3.85;0.90;;;;;;;13.94;79.79;100632.34;5013915;28;20042;-74
2022/08/20 06:27:00;;;;;;;5.65;0.98;;;;;;;14.06;79.43;100638.34;5017956;28;20022;-74
2022/08/20 06:29:27;;;;;;;7.57;1.20;;;;;;;14.11;79.15;100634.75;5022259;28;20079;-74
2022/08/20 06:31:54;;;;;;;6.82;1.35;;;;;;;14.15;78.96;100635.81;5018336;28;20044;-74
2022/08/20 06:34:19;;;;;;;3.47;1.10;;;;;;;14.19;79.06;100638.81;5025640;28;20029;-74
2022/08/20 06:36:45;;;;;;;3.83;0.80;;;;;;;14.19;78.97;100630.56;5039195;28;20439;-75
2022/08/20 06:39:14;;;;;;;3.92;0.98;;;;;;;14.30;79.02;100632.13;5040434;28;20471;-73
2022/08/20 06:41:40;;;;;;;3.58;0.90;;;;;;;14.33;78.67;100631.56;5040002;28;20029;-73
2022/08/20 06:44:06;;;;;;;2.65;0.70;;;;;;;14.49;78.19;100638.59;5038438;28;20034;-74
2022/08/20 06:46:36;;;;;;;4.05;1.00;;;;;;;14.66;77.99;100634.66;5040166;28;20033;-74
2022/08/20 06:49:04;;;;;;;4.68;1.00;;;;;;;14.73;77.87;100637.88;5035974;28;20585;-74
2022/08/20 06:51:29;;;;;;;9.90;1.55;;;;;;;14.80;77.29;100634.78;5038755;28;20021;-75
2022/08/20 06:53:56;;;;;;;3.55;1.00;;;;;;;14.86;77.36;100643.81;5038841;28;20059;-74
2022/08/20 06:56:22;;;;;;;4.18;1.08;;;;;;;14.87;77.14;100632.53;5040183;28;20030;-74
2022/08/20 06:58:48;;;;;;;6.15;1.17;;;;;;;14.91;77.01;100641.84;5038665;28;20025;-73
2022/08/20 07:01:14;;;;;;;6.22;1.30;;;;;;;14.99;77.04;100640.38;5041174;28;20496;-74
2022/08/20 07:03:41;;;;;;;2.10;0.70;;;;;;;15.13;76.35;100633.09;5022529;28;20036;-74
2022/08/20 07:06:07;;;;;;;5.72;1.30;;;;;;;15.26;75.89;100636.25;5019865;28;20036;-73
2022/08/20 07:08:34;;;;;;;6.72;1.42;;;;;;;15.33;75.48;100625.69;5035451;28;20033;-75
2022/08/20 07:11:00;;;;;;;7.30;1.05;;;;;;;15.46;75.59;100636.03;5003113;28;20025;-74
2022/08/20 07:13:27;;;;;;;5.35;1.10;;;;;;;15.57;75.03;100630.41;5021965;28;20361;-74
2022/08/20 07:15:53;;;;;;;6.20;1.27;;;;;;;15.70;74.63;100638.75;5033462;28;20025;-74
2022/08/20 07:18:18;;;;;;;6.38;1.65;;;;;;;15.84;74.31;100630.63;5031341;28;20504;-74
2022/08/20 07:20:44;;;;;;;7.15;1.13;;;;;;;16.01;74.15;100634.81;5035858;28;20045;-73
2022/08/20 07:23:12;;;;;;;5.82;0.98;;;;;;;16.17;73.75;100638.97;5035929;28;20048;-75
2022/08/20 07:25:40;;;;;;;7.82;1.50;;;;;;;16.30;73.39;100628.31;5042478;28;20040;-73
2022/08/20 07:28:13;;;;;;;4.50;1.20;;;;;;;16.43;72.91;100635.84;5021908;28;20024;-74
2022/08/20 07:33:27;;;;;;;5.50;1.17;;;;;;;16.73;71.98;100628.16;5037676;28;20218;-74
2022/08/20 07:35:53;;;;;;;10.63;1.58;;;;;;;16.80;71.74;100638.81;5035767;28;20025;-74
2022/08/20 07:38:23;;;;;;;9.63;1.70;;;;;;;16.92;71.15;100626.22;5033430;28;20029;-75
2022/08/20 07:41:00;;;;;;;9.85;1.70;;;;;;;17.11;70.65;100630.81;5014866;28;20033;-74
2022/08/20 07:43:27;;;;;;;5.75;1.65;;;;;;;17.32;69.75;100633.19;5036524;28;20022;-74
2022/08/20 07:45:56;;;;;;;6.95;1.55;;;;;;;17.46;69.14;100636.78;5018410;28;20027;-74
2022/08/20 07:48:24;;;;;;;14.07;1.48;;;;;;;17.55;67.36;100629.41;5019553;28;20029;-74
2022/08/20 07:50:58;;;;;;;7.13;1.27;;;;;;;17.67;66.80;100630.81;5040660;28;20028;-74
2022/08/20 07:53:25;;;;;;;7.03;0.80;;;;;;;17.78;63.86;100626.72;5034489;28;20037;-76
2022/08/20 07:55:51;;;;;;;9.80;1.42;;;;;;;17.77;63.16;100628.69;5034723;28;20078;-75
2022/08/20 07:58:19;;;;;;;8.65;1.40;;;;;;;17.79;62.62;100631.13;5016807;28;20026;-76
2022/08/20 08:00:57;;;;;;;6.57;1.17;;;;;;;17.80;62.18;100636.34;5036979;28;20030;-75
2022/08/20 08:03:23;;;;;;;3.00;0.90;;;;;;;17.83;62.54;100626.63;5034226;28;20029;-74
2022/08/20 08:05:52;;;;;;;8.25;1.42;;;;;;;17.87;62.55;100640.63;5002914;28;20391;-74
2022/08/20 08:08:22;;;;;;;8.57;1.48;;;;;;;17.92;62.98;100641.38;5039894;28;20037;-75
2022/08/20 08:10:52;;;;;;;7.18;1.30;;;;;;;18.04;62.53;100637.25;5020232;28;20067;-74
2022/08/20 08:13:18;;;;;;;7.55;1.10;;;;;;;18.23;61.66;100640.69;5036753;28;20021;-75
2022/08/20 08:15:46;;;;;;;13.00;1.55;;;;;;;18.47;60.75;100640.41;5016077;28;20030;-73
2022/08/20 08:18:20;;;;;;;8.45;2.38;;;;;;;18.60;59.46;100638.72;5042156;28;20052;-74
2022/08/20 08:20:45;;;;;;;8.18;1.90;;;;;;;18.69;59.58;100646.25;5037679;28;20549;-75
2022/08/20 08:23:11;;;;;;;5.90;1.25;;;;;;;18.73;59.07;100636.16;5039253;28;20065;-74
2022/08/20 08:25:41;;;;;;;6.68;1.45;;;;;;;18.79;58.76;100640.44;5038985;28;20029;-74
2022/08/20 08:28:06;;;;;;;5.60;1.13;;;;;;;18.92;58.63;100634.03;5025849;28;20021;-75
2022/08/20 08:30:32;;;;;;;4.70;1.15;;;;;;;19.29;58.05;100631.94;5034699;28;20083;-75
2022/08/20 08:35:44;;;;;;;6.55;1.27;;;;;;;19.13;57.09;100633.50;5019932;28;20297;-76
2022/08/20 08:38:10;;;;;;;7.30;2.10;;;;;;;19.16;57.85;100621.78;5016794;28;20037;-74
2022/08/20 08:40:36;;;;;;;8.77;1.20;;;;;;;19.33;56.84;100624.63;5033701;28;20756;-74
2022/08/20 08:43:03;;;;;;;6.75;1.15;;;;;;;19.49;56.63;100635.25;5033707;28;20037;-73
2022/08/20 08:45:42;;;;;;;7.13;1.02;;;;;;;19.60;55.67;100630.25;5033174;28;20029;-74
2022/08/20 08:48:14;;;;;;;8.50;1.60;;;;;;;19.75;53.77;100638.09;5013365;28;20022;-74
2022/08/20 08:50:44;;;;;;;3.75;1.00;;;;;;;19.75;53.77;100654.75;5032543;28;20055;-74
2022/08/20 08:53:19;;;;;;;2.45;0.88;;;;;;;19.84;53.54;100646.47;4999921;28;20045;-73
2022/08/20 08:55:44;;;;;;;2.72;0.73;;;;;;;20.06;52.28;100637.19;5034727;28;20551;-74
2022/08/20 08:58:10;;;;;;;7.28;1.15;;;;;;;21.25;49.90;100650.81;5040106;28;20036;-74
2022/08/20 09:00:35;;;;;;;2.60;0.88;;;;;;;22.88;45.70;100643.97;5034714;28;20078;-75
2022/08/20 09:03:09;;;;;;;4.63;1.23;;;;;;;24.37;41.17;100640.81;5033865;28;20093;-73
2022/08/20 09:05:45;;;;;;;6.65;1.40;;;;;;;25.67;38.32;100641.47;5016883;28;20029;-74
2022/08/20 09:08:15;;;;;;;3.40;1.02;;;;;;;25.34;39.25;100641.88;5037126;28;20028;-74
2022/08/20 09:10:41;;;;;;;2.60;1.00;;;;;;;25.07;39.71;100639.56;5038130;28;20021;-74
2022/08/20 09:13:07;;;;;;;9.60;1.15;;;;;;;25.31;38.90;100634.19;5021355;28;20021;-74
2022/08/20 09:15:34;;;;;;;5.65;1.40;;;;;;;25.70;37.97;100637.09;5021768;28;20116;-74
2022/08/20 09:17:59;;;;;;;3.33;0.85;;;;;;;26.46;36.80;100656.44;5033398;28;20501;-72
2022/08/20 09:20:25;;;;;;;4.15;1.25;;;;;;;28.26;33.77;100648.25;5038215;28;20087;-73
2022/08/20 09:22:51;;;;;;;4.35;1.08;;;;;;;29.87;30.75;100653.09;5016207;28;20017;-72
2022/08/20 09:25:17;;;;;;;3.20;1.02;;;;;;;27.96;32.92;100651.03;5036638;28;20029;-73
2022/08/20 09:27:42;;;;;;;3.85;0.88;;;;;;;29.35;31.49;100628.56;5037890;28;20033;-73
2022/08/20 09:30:08;;;;;;;3.85;1.10;;;;;;;30.40;29.54;100635.63;5019415;28;20132;-73
2022/08/20 09:32:34;;;;;;;6.18;1.38;;;;;;;30.51;28.65;100638.50;5022084;28;20079;-74
2022/08/20 09:35:00;;;;;;;3.03;0.90;;;;;;;32.26;25.85;100632.47;5045550;28;20108;-73
2022/08/20 09:37:31;;;;;;;3.40;1.00;;;;;;;34.26;24.38;100631.28;5037513;28;20029;-74
2022/08/20 09:39:57;;;;;;;4.05;0.50;;;;;;;35.40;22.19;100624.38;5042953;28;20013;-76
2022/08/20 09:42:25;;;;;;;4.85;1.08;;;;;;;35.63;21.85;100637.75;5036571;28;20036;-74
2022/08/20 09:44:51;;;;;;;4.93;1.10;;;;;;;36.49;20.49;100619.00;5037917;28;20017;-73
2022/08/20 09:47:20;;;;;;;8.10;1.20;;;;;;;38.55;18.94;100620.13;5017914;28;20360;-74
2022/08/20 09:49:46;;;;;;;4.47;0.90;;;;;;;39.80;17.18;100611.44;5026098;28;20029;-75
2022/08/20 09:52:25;;;;;;;5.22;1.10;;;;;;;35.36;20.46;100606.56;5025828;28;20025;-74
2022/08/20 09:54:54;;;;;;;4.00;0.98;;;;;;;34.56;21.75;100607.75;5035197;28;20052;-75
2022/08/20 09:57:23;;;;;;;17.23;1.52;;;;;;;32.51;24.11;100610.50;5037782;28;20026;-73
2022/08/20 09:59:57;;;;;;;4.28;1.08;;;;;;;30.80;26.55;100618.84;5022038;28;20100;-73
2022/08/20 10:02:23;;;;;;;8.50;0.90;;;;;;;33.34;24.01;100609.16;5045486;28;20033;-72
2022/08/20 10:04:49;;;;;;;3.72;0.90;;;;;;;36.20;21.34;100615.94;5037365;28;20033;-74
2022/08/20 10:07:14;;;;;;;4.78;1.00;;;;;;;37.65;18.99;100619.81;5038377;28;20034;-74
2022/08/20 10:09:40;;;;;;;2.17;0.90;;;;;;;38.00;18.28;100608.69;5037976;28;20033;-74
2022/08/20 10:12:06;;;;;;;5.63;0.88;;;;;;;39.03;17.71;100603.06;5038549;28;20052;-74
2022/08/20 10:14:31;;;;;;;3.40;1.02;;;;;;;40.71;16.19;100611.69;5040449;28;20041;-74
2022/08/20 10:16:59;;;;;;;4.82;0.95;;;;;;;40.85;16.35;100603.78;5028732;28;20049;-74
2022/08/20 10:19:27;;;;;;;3.65;0.90;;;;;;;40.98;15.69;100618.81;5036097;28;20060;-72
2022/08/20 10:21:53;;;;;;;2.78;0.95;;;;;;;38.61;17.52;100610.97;5023968;28;20064;-74
2022/08/20 10:24:20;;;;;;;4.45;1.13;;;;;;;36.42;19.84;100606.94;5036036;28;20025;-74
2022/08/20 10:26:46;;;;;;;2.30;1.13;;;;;;;33.14;22.79;100606.06;5038633;28;20033;-75
2022/08/20 10:29:12;;;;;;;7.15;1.20;;;;;;;32.89;24.09;100616.34;5037219;28;20029;-75
2022/08/20 10:31:38;;;;;;;4.85;1.02;;;;;;;35.87;20.62;100606.47;5040607;28;20098;-73
2022/08/20 10:34:03;;;;;;;2.65;1.08;;;;;;;38.60;18.53;100613.03;5018540;28;20449;-74
2022/08/20 10:36:29;;;;;;;7.53;1.63;;;;;;;40.34;16.12;100613.59;5036257;28;20029;-74
2022/08/20 10:38:54;;;;;;;1.65;0.88;;;;;;;36.96;19.04;100597.97;5017886;28;20063;-74
2022/08/20 10:41:20;;;;;;;6.68;1.08;;;;;;;34.86;21.31;100597.63;5020420;28;20017;-78
2022/08/20 10:43:45;;;;;;;2.72;1.00;;;;;;;31.61;24.75;100584.56;5031126;28;20044;-74
2022/08/20 10:46:11;;;;;;;3.63;1.25;;;;;;;29.93;26.83;100589.50;5016173;28;20538;-73
2022/08/20 10:48:37;;;;;;;3.25;1.00;;;;;;;33.36;23.99;100589.72;5010449;28;22482;-73
2022/08/20 10:51:03;;;;;;;2.92;0.90;;;;;;;36.61;19.97;100594.72;5034079;28;20013;-74
2022/08/20 10:53:28;;;;;;;2.70;1.08;;;;;;;39.18;17.37;100608.31;5018286;28;20017;-75
2022/08/20 10:55:55;;;;;;;2.88;0.95;;;;;;;40.27;16.15;100597.47;4991944;28;20022;-74
2022/08/20 10:58:20;;;;;;;1.73;0.75;;;;;;;41.24;15.29;100592.72;5036215;28;20488;-73
2022/08/20 11:00:46;;;;;;;3.22;0.95;;;;;;;41.10;15.26;100589.22;5043841;28;20044;-74
2022/08/20 11:03:12;;;;;;;2.70;0.98;;;;;;;41.99;14.77;100585.75;5018452;28;20038;-74
2022/08/20 11:05:45;;;;;;;2.78;0.70;;;;;;;43.47;13.74;100584.25;5028149;28;20025;-73
2022/08/20 11:08:10;;;;;;;2.67;0.85;;;;;;;40.96;15.17;100592.69;5036758;28;20115;-74
2022/08/20 11:10:37;;;;;;;4.57;0.90;;;;;;;38.09;17.50;100579.47;5028345;28;20029;-73
2022/08/20 11:13:04;;;;;;;3.50;0.50;;;;;;;40.17;16.09;100592.94;5035064;28;20080;-74
2022/08/20 11:15:32;;;;;;;1.80;0.73;;;;;;;41.89;14.19;100584.16;5035574;28;20089;-72
2022/08/20 11:17:57;;;;;;;3.67;0.77;;;;;;;43.16;13.15;100577.59;5007683;28;20477;-74
2022/08/20 11:20:25;;;;;;;2.88;0.47;;;;;;;44.08;11.86;100581.75;4997729;28;20116;-72
2022/08/20 11:22:51;;;;;;;2.38;1.00;;;;;;;40.60;14.88;100576.97;4997077;28;20049;-73
2022/08/20 11:25:17;;;;;;;2.10;0.98;;;;;;;36.36;18.75;100581.03;5020026;28;20034;-75
2022/08/20 11:27:46;;;;;;;5.13;1.42;;;;;;;34.36;21.52;100575.63;5015347;28;20026;-73
2022/08/20 11:30:25;;;;;;;2.70;0.90;;;;;;;36.51;19.32;100578.69;5018036;28;20467;-73
2022/08/20 11:32:51;;;;;;;3.88;1.10;;;;;;;37.93;17.66;100585.25;5016095;28;20053;-73
2022/08/20 11:35:18;;;;;;;3.50;0.82;;;;;;;38.68;17.12;100593.63;5019781;28;20021;-74